createdAt,value
2017-12-01T00:01:47.415Z,11.65
2017-12-01T00:04:15.071Z,11.25
2017-12-01T00:06:42.639Z,6.97
2017-12-01T00:09:10.250Z,11.38
2017-12-01T00:11:37.893Z,8.80
2017-12-01T00:14:06.255Z,7.35
2017-12-01T00:16:33.960Z,7.75
2017-12-01T00:19:01.532Z,6.53
2017-12-01T00:21:29.128Z,7.07
2017-12-01T00:23:56.815Z,10.07
2017-12-01T00:26:25.363Z,10.30
2017-12-01T00:28:52.967Z,8.85
2017-12-01T00:31:21.348Z,7.75
2017-12-01T00:33:48.923Z,7.55
2017-12-01T00:36:16.555Z,9.18
2017-12-01T00:38:44.903Z,5.97
2017-12-01T00:41:12.488Z,9.82
2017-12-01T00:43:40.902Z,10.13
2017-12-01T00:46:08.471Z,8.90
2017-12-01T00:48:36.068Z,10.35
2017-12-01T00:51:03.661Z,8.27
2017-12-01T00:53:31.332Z,8.55
2017-12-01T00:55:58.908Z,7.35
2017-12-01T00:58:26.468Z,9.50
2017-12-01T01:00:54.179Z,15.75
2017-12-01T01:03:22.504Z,9.27
2017-12-01T01:05:50.066Z,7.65
2017-12-01T01:08:17.667Z,9.52
2017-12-01T01:10:45.997Z,9.05
2017-12-01T01:13:13.608Z,11.25
2017-12-01T01:15:41.924Z,7.93
2017-12-01T01:18:09.570Z,8.70
2017-12-01T01:20:37.132Z,7.78
2017-12-01T01:23:04.692Z,6.80
2017-12-01T01:25:32.268Z,6.93
2017-12-01T01:27:59.892Z,7.78
2017-12-01T01:30:28.241Z,7.95
2017-12-01T01:32:55.845Z,4.80
2017-12-01T01:35:23.420Z,9.05
2017-12-01T01:37:51.011Z,6.05
2017-12-01T01:40:18.564Z,10.13
2017-12-01T01:42:46.143Z,9.32
2017-12-01T01:45:14.561Z,13.13
2017-12-01T01:47:42.141Z,9.57
2017-12-01T01:50:09.746Z,10.73
2017-12-01T01:52:38.068Z,10.30
2017-12-01T01:55:05.631Z,11.20
2017-12-01T01:57:33.242Z,10.75
2017-12-01T02:00:01.607Z,12.32
2017-12-01T02:02:29.201Z,10.57
2017-12-01T02:04:56.751Z,10.68
2017-12-01T02:07:24.351Z,12.25
2017-12-01T02:09:52.083Z,11.00
2017-12-01T02:12:19.642Z,10.40
2017-12-01T02:14:47.335Z,13.10
2017-12-01T02:17:14.895Z,15.18
2017-12-01T02:19:42.462Z,14.45
2017-12-01T02:22:11.667Z,13.75
2017-12-01T02:24:39.279Z,14.02
2017-12-01T02:27:06.979Z,21.67
2017-12-01T02:29:34.637Z,17.42
2017-12-01T02:32:02.248Z,18.45
2017-12-01T02:34:29.811Z,16.05
2017-12-01T02:36:57.408Z,17.52
2017-12-01T02:39:25.004Z,14.45
2017-12-01T02:41:52.575Z,15.65
2017-12-01T02:44:20.167Z,19.45
2017-12-01T02:46:47.747Z,17.55
2017-12-01T02:49:15.311Z,24.50
2017-12-01T02:51:43.016Z,23.08
2017-12-01T02:54:10.575Z,18.73
2017-12-01T02:56:38.182Z,15.38
2017-12-01T02:59:05.766Z,18.00
2017-12-01T03:01:34.247Z,15.77
2017-12-01T03:04:01.948Z,17.67
2017-12-01T03:06:29.512Z,14.90
2017-12-01T03:08:57.112Z,13.40
2017-12-01T03:11:24.799Z,19.40
2017-12-01T03:13:53.171Z,16.92
2017-12-01T03:16:21.534Z,21.12
2017-12-01T03:18:49.092Z,17.37
2017-12-01T03:21:16.691Z,14.57
2017-12-01T03:23:44.291Z,16.85
2017-12-01T03:26:12.028Z,19.80
2017-12-01T03:28:39.784Z,17.67
2017-12-01T03:31:07.344Z,17.87
2017-12-01T03:33:34.937Z,21.85
2017-12-01T03:36:02.541Z,19.85
2017-12-01T03:38:30.135Z,19.10
2017-12-01T03:40:57.882Z,18.67
2017-12-01T03:43:25.476Z,22.35
2017-12-01T03:45:53.043Z,20.02
2017-12-01T03:48:20.657Z,15.45
2017-12-01T03:50:48.250Z,22.08
2017-12-01T03:53:15.815Z,19.83
2017-12-01T03:55:43.410Z,18.30
2017-12-01T03:58:11.748Z,16.87
2017-12-01T04:00:39.467Z,16.55
2017-12-01T04:03:07.047Z,18.87
2017-12-01T04:05:34.692Z,18.70
2017-12-01T04:08:02.353Z,17.40
2017-12-01T04:10:29.915Z,19.08
2017-12-01T04:12:57.498Z,16.85
2017-12-01T04:15:25.054Z,17.90
2017-12-01T04:17:52.657Z,16.15
2017-12-01T04:20:21.036Z,18.30
2017-12-01T04:22:49.557Z,16.52
2017-12-01T04:25:17.114Z,15.48
2017-12-01T04:27:44.662Z,16.83
2017-12-01T04:30:12.252Z,18.98
2017-12-01T04:32:39.878Z,17.55
2017-12-01T04:35:07.567Z,16.42
2017-12-01T04:37:35.158Z,15.02
2017-12-01T04:40:02.725Z,19.70
2017-12-01T04:42:31.240Z,20.40
2017-12-01T04:44:58.831Z,19.85
2017-12-01T04:47:26.403Z,22.58
2017-12-01T04:49:54.035Z,22.87
2017-12-01T04:52:21.631Z,25.55
2017-12-01T04:54:49.963Z,22.20
2017-12-01T04:57:17.638Z,25.95
2017-12-01T04:59:45.227Z,22.33
2017-12-01T05:02:12.799Z,22.92
2017-12-01T05:04:41.157Z,21.52
2017-12-01T05:07:08.783Z,22.42
2017-12-01T05:09:36.340Z,22.77
2017-12-01T05:12:03.931Z,26.12
2017-12-01T05:14:31.487Z,28.75
2017-12-01T05:16:59.139Z,27.23
2017-12-01T05:19:26.695Z,23.42
2017-12-01T05:21:54.256Z,27.48
2017-12-01T05:24:21.919Z,27.20
2017-12-01T05:26:49.478Z,25.12
2017-12-01T05:29:17.051Z,27.27
2017-12-01T05:31:44.654Z,26.60
2017-12-01T05:34:12.215Z,28.67
2017-12-01T05:36:39.839Z,32.35
2017-12-01T05:39:08.172Z,25.20
2017-12-01T05:41:35.912Z,22.60
2017-12-01T05:44:03.497Z,18.08
2017-12-01T05:46:31.087Z,20.20
2017-12-01T05:48:58.687Z,19.65
2017-12-01T05:51:26.312Z,15.57
2017-12-01T05:53:54.731Z,17.83
2017-12-01T05:56:22.489Z,14.05
2017-12-01T05:58:50.087Z,14.80
2017-12-01T06:01:17.674Z,10.55
2017-12-01T06:03:46.170Z,9.18
2017-12-01T06:06:13.894Z,10.48
2017-12-01T06:08:42.392Z,9.65
2017-12-01T06:11:10.779Z,12.85
2017-12-01T06:13:39.135Z,10.93
2017-12-01T06:16:06.688Z,8.32
2017-12-01T06:18:34.271Z,7.75
2017-12-01T06:21:02.741Z,8.07
2017-12-01T06:23:30.315Z,8.95
2017-12-01T06:25:58.656Z,9.05
2017-12-01T06:28:26.336Z,7.62
2017-12-01T06:30:54.712Z,9.75
2017-12-01T06:33:22.263Z,9.68
2017-12-01T06:35:49.973Z,10.52
2017-12-01T06:38:17.562Z,9.63
2017-12-01T06:40:45.179Z,11.50
2017-12-01T06:43:12.788Z,9.23
2017-12-01T06:45:40.351Z,10.82
2017-12-01T06:48:08.074Z,9.20
2017-12-01T06:50:35.767Z,9.68
2017-12-01T06:53:03.351Z,10.18
2017-12-01T06:55:30.949Z,10.65
2017-12-01T06:57:58.547Z,11.68
2017-12-01T07:00:26.136Z,9.75
2017-12-01T07:02:54.484Z,10.95
2017-12-01T07:05:22.197Z,10.40
2017-12-01T07:07:49.908Z,9.52
2017-12-01T07:10:17.497Z,11.93
2017-12-01T07:12:46.006Z,13.40
2017-12-01T07:15:13.568Z,12.35
2017-12-01T07:17:41.225Z,14.55
2017-12-01T07:20:08.789Z,11.52
2017-12-01T07:22:36.402Z,15.48
2017-12-01T07:25:04.822Z,15.68
2017-12-01T07:27:32.480Z,14.50
2017-12-01T07:30:00.081Z,14.43
2017-12-01T07:32:27.668Z,16.67
2017-12-01T07:34:56.187Z,17.00
2017-12-01T07:37:23.797Z,21.80
2017-12-01T07:39:51.359Z,18.92
2017-12-01T07:42:19.059Z,13.05
2017-12-01T07:44:48.339Z,10.95
2017-12-01T07:47:16.692Z,13.77
2017-12-01T07:49:44.242Z,18.40
2017-12-01T07:52:11.815Z,13.85
2017-12-01T07:54:40.173Z,14.15
2017-12-01T07:57:07.720Z,12.23
2017-12-01T07:59:35.278Z,13.65
2017-12-01T08:02:02.926Z,13.68
2017-12-01T08:04:30.462Z,13.60
2017-12-01T08:06:58.007Z,13.73
2017-12-01T08:09:25.614Z,16.08
2017-12-01T08:11:53.178Z,10.60
2017-12-01T08:14:20.756Z,12.20
2017-12-01T08:17:00.347Z,13.52
2017-12-01T08:19:27.919Z,12.45
2017-12-01T08:22:07.407Z,11.60
2017-12-01T08:24:47.566Z,13.20
2017-12-01T08:27:15.123Z,14.00
2017-12-01T08:29:43.446Z,10.95
2017-12-01T08:32:11.027Z,24.40
2017-12-01T08:34:38.591Z,13.27
2017-12-01T08:37:06.319Z,10.75
2017-12-01T08:39:33.886Z,10.40
2017-12-01T08:42:01.518Z,9.07
2017-12-01T08:44:29.128Z,9.80
2017-12-01T08:46:56.688Z,12.60
2017-12-01T08:49:24.271Z,12.77
2017-12-01T08:51:52.632Z,12.75
2017-12-01T08:54:20.988Z,12.45
2017-12-01T08:56:48.719Z,10.52
2017-12-01T08:59:16.386Z,13.40
2017-12-01T09:01:43.943Z,13.43
2017-12-01T09:04:11.572Z,15.65
2017-12-01T09:06:39.252Z,13.27
2017-12-01T09:09:06.820Z,14.65
2017-12-01T09:11:34.432Z,14.02
2017-12-01T09:14:02.803Z,12.70
2017-12-01T09:16:30.399Z,13.73
2017-12-01T09:18:57.983Z,11.70
2017-12-01T09:21:25.772Z,13.00
2017-12-01T09:23:53.365Z,16.35
2017-12-01T09:26:21.790Z,13.15
2017-12-01T09:28:49.393Z,15.18
2017-12-01T09:31:17.803Z,18.00
2017-12-01T09:33:45.346Z,19.80
2017-12-01T09:36:12.943Z,20.75
2017-12-01T09:38:40.534Z,15.27
2017-12-01T09:41:08.239Z,15.68
2017-12-01T09:43:35.802Z,14.85
2017-12-01T09:46:03.370Z,14.75
2017-12-01T09:48:30.990Z,13.35
2017-12-01T09:50:59.307Z,13.88
2017-12-01T09:53:27.002Z,15.73
2017-12-01T09:55:54.570Z,13.23
2017-12-01T09:58:22.153Z,13.18
2017-12-01T10:00:49.709Z,17.80
2017-12-01T10:03:18.066Z,17.90
2017-12-01T10:05:46.589Z,17.45
2017-12-01T10:08:14.211Z,16.98
2017-12-01T10:10:42.636Z,17.58
2017-12-01T10:13:10.228Z,13.23
2017-12-01T10:15:37.848Z,17.37
2017-12-01T10:18:05.451Z,15.25
2017-12-01T10:20:33.020Z,16.35
2017-12-01T10:23:00.599Z,13.23
2017-12-01T10:25:28.196Z,11.20
2017-12-01T10:27:55.903Z,13.30
2017-12-01T10:30:23.500Z,18.50
2017-12-01T10:32:51.077Z,15.57
2017-12-01T10:35:18.660Z,11.63
2017-12-01T10:37:46.251Z,11.12
2017-12-01T10:40:14.578Z,11.35
2017-12-01T10:42:42.183Z,12.02
2017-12-01T10:45:10.519Z,13.62
2017-12-01T10:47:38.067Z,13.50
2017-12-01T10:50:05.666Z,9.93
2017-12-01T10:52:33.983Z,11.00
2017-12-01T10:55:01.616Z,10.55
2017-12-01T10:57:29.943Z,14.30
2017-12-01T10:59:57.524Z,12.43
2017-12-01T11:02:25.111Z,9.75
2017-12-01T11:04:53.470Z,9.88
2017-12-01T11:07:21.824Z,11.52
2017-12-01T11:09:49.390Z,10.35
2017-12-01T11:12:16.975Z,11.38
2017-12-01T11:14:45.315Z,12.85
2017-12-01T11:17:13.043Z,10.98
2017-12-01T11:19:40.652Z,13.48
2017-12-01T11:22:08.254Z,12.45
2017-12-01T11:24:35.812Z,10.52
2017-12-01T11:27:03.400Z,14.87
2017-12-01T11:29:31.003Z,10.98
2017-12-01T11:31:59.335Z,11.95
2017-12-01T11:34:26.939Z,13.65
2017-12-01T11:36:55.284Z,14.07
2017-12-01T11:39:22.847Z,13.25
2017-12-01T11:41:50.443Z,12.70
2017-12-01T11:44:18.832Z,13.60
2017-12-01T11:46:46.415Z,13.00
2017-12-01T11:49:14.003Z,17.23
2017-12-01T11:51:41.574Z,17.30
2017-12-01T11:54:09.179Z,16.05
2017-12-01T11:56:36.841Z,15.60
2017-12-01T11:59:04.568Z,17.58
2017-12-01T12:01:32.908Z,15.25
2017-12-01T12:04:00.467Z,13.73
2017-12-01T12:06:28.079Z,14.63
2017-12-01T12:08:55.641Z,13.35
2017-12-01T12:11:23.304Z,18.73
2017-12-01T12:13:51.035Z,14.80
2017-12-01T12:16:18.604Z,17.15
2017-12-01T12:18:46.970Z,19.60
2017-12-01T12:21:14.563Z,27.00
2017-12-01T12:23:42.127Z,15.43
2017-12-01T12:26:09.739Z,20.75
2017-12-01T12:28:37.314Z,17.75
2017-12-01T12:31:05.696Z,16.50
2017-12-01T12:33:34.059Z,16.80
2017-12-01T12:36:01.623Z,14.73
2017-12-01T12:38:29.223Z,15.45
2017-12-01T12:40:56.818Z,17.55
2017-12-01T12:43:24.417Z,14.05
2017-12-01T12:45:52.738Z,16.05
2017-12-01T12:48:20.352Z,17.83
2017-12-01T12:50:48.822Z,17.87
2017-12-01T12:53:17.158Z,18.58
2017-12-01T12:55:44.759Z,21.77
2017-12-01T12:58:13.185Z,21.02
2017-12-01T13:00:40.800Z,20.33
2017-12-01T13:03:09.149Z,19.23
2017-12-01T13:05:36.722Z,21.10
2017-12-01T13:08:04.308Z,20.37
2017-12-01T13:10:31.898Z,15.65
2017-12-01T13:12:59.531Z,18.42
2017-12-01T13:15:27.167Z,18.25
2017-12-01T13:17:55.587Z,17.15
2017-12-01T13:20:23.210Z,18.05
2017-12-01T13:22:51.552Z,21.20
2017-12-01T13:25:19.136Z,19.58
2017-12-01T13:27:47.464Z,18.20
2017-12-01T13:30:15.071Z,18.25
2017-12-01T13:32:42.643Z,21.55
2017-12-01T13:35:11.012Z,19.30
2017-12-01T13:37:39.336Z,16.52
2017-12-01T13:40:06.915Z,16.02
2017-12-01T13:42:34.540Z,21.70
2017-12-01T13:45:02.115Z,18.85
2017-12-01T13:47:29.764Z,17.20
2017-12-01T13:49:57.323Z,12.10
2017-12-01T13:52:24.936Z,13.27
2017-12-01T13:54:52.495Z,13.15
2017-12-01T13:57:20.163Z,13.80
2017-12-01T13:59:48.539Z,15.52
2017-12-01T14:02:16.887Z,12.07
2017-12-01T14:04:44.475Z,16.40
2017-12-01T14:07:12.804Z,16.92
2017-12-01T14:09:40.502Z,13.90
2017-12-01T14:12:08.107Z,14.40
2017-12-01T14:14:35.678Z,16.50
2017-12-01T14:17:03.374Z,14.27
2017-12-01T14:19:30.956Z,13.95
2017-12-01T14:21:59.430Z,17.35
2017-12-01T14:24:27.796Z,17.20
2017-12-01T14:26:55.366Z,11.98
2017-12-01T14:29:23.738Z,23.40
2017-12-01T14:31:52.238Z,17.50
2017-12-01T14:34:20.571Z,21.00
2017-12-01T14:36:48.311Z,21.23
2017-12-01T14:39:15.879Z,21.40
2017-12-01T14:41:43.499Z,22.25
2017-12-01T14:44:11.095Z,18.75
2017-12-01T14:46:38.691Z,15.77
2017-12-01T14:49:06.294Z,17.58
2017-12-01T14:51:33.934Z,21.25
2017-12-01T14:54:01.672Z,17.75
2017-12-01T14:56:29.246Z,23.65
2017-12-01T14:58:57.706Z,15.82
2017-12-01T15:01:25.304Z,23.60
2017-12-01T15:03:52.872Z,17.52
2017-12-01T15:06:20.463Z,19.62
2017-12-01T15:08:48.045Z,20.27
2017-12-01T15:11:15.618Z,17.87
2017-12-01T15:13:43.227Z,19.10
2017-12-01T15:16:10.873Z,18.65
2017-12-01T15:18:38.531Z,20.17
2017-12-01T15:21:06.127Z,21.15
2017-12-01T15:23:35.428Z,20.83
2017-12-01T15:26:02.996Z,20.30
2017-12-01T15:28:30.564Z,20.70
2017-12-01T15:30:58.192Z,22.98
2017-12-01T15:33:25.844Z,21.65
2017-12-01T15:35:53.435Z,27.02
2017-12-01T15:38:21.022Z,21.55
2017-12-01T15:40:48.635Z,23.00
2017-12-01T15:43:16.227Z,23.65
2017-12-01T15:45:44.579Z,22.80
2017-12-01T15:48:12.156Z,20.02
2017-12-01T15:50:39.761Z,22.08
2017-12-01T15:53:07.343Z,25.85
2017-12-01T15:55:34.981Z,21.40
2017-12-01T15:58:02.602Z,30.17
2017-12-01T16:00:30.931Z,19.98
2017-12-01T16:02:58.518Z,30.23
2017-12-01T16:05:26.092Z,25.23
2017-12-01T16:07:54.504Z,23.85
2017-12-01T16:10:22.065Z,23.80
2017-12-01T16:12:49.644Z,26.25
2017-12-01T16:15:17.248Z,24.50
2017-12-01T16:17:45.575Z,21.80
2017-12-01T16:20:13.164Z,24.27
2017-12-01T16:22:40.776Z,22.42
2017-12-01T16:25:08.348Z,21.35
2017-12-01T16:27:35.995Z,24.65
2017-12-01T16:30:03.579Z,24.63
2017-12-01T16:32:31.145Z,26.87
2017-12-01T16:34:58.727Z,23.40
2017-12-01T16:37:26.291Z,23.05
2017-12-01T16:39:53.902Z,25.45
2017-12-01T16:42:21.474Z,25.30
2017-12-01T16:44:49.046Z,27.48
2017-12-01T16:47:16.648Z,26.62
2017-12-01T16:49:44.991Z,24.12
2017-12-01T16:52:13.567Z,27.15
2017-12-01T16:54:41.255Z,23.52
2017-12-01T16:57:09.651Z,23.40
2017-12-01T16:59:37.258Z,27.25
2017-12-01T17:02:04.867Z,30.73
2017-12-01T17:04:32.479Z,35.42
2017-12-01T17:07:00.052Z,29.23
2017-12-01T17:09:27.831Z,29.95
2017-12-01T17:11:56.982Z,27.80
2017-12-01T17:14:24.559Z,30.62
2017-12-01T17:16:52.156Z,35.22
2017-12-01T17:19:19.753Z,25.58
2017-12-01T17:21:47.371Z,26.20
2017-12-01T17:24:15.715Z,27.55
2017-12-01T17:26:43.391Z,34.75
2017-12-01T17:29:10.988Z,35.63
2017-12-01T17:31:38.555Z,26.58
2017-12-01T17:34:06.155Z,22.65
2017-12-01T17:36:33.832Z,28.17
2017-12-01T17:39:01.439Z,24.87
2017-12-01T17:41:29.011Z,28.80
2017-12-01T17:43:56.579Z,29.37
2017-12-01T17:46:24.191Z,33.20
2017-12-01T17:48:51.756Z,33.92
2017-12-01T17:51:19.452Z,38.95
2017-12-01T17:53:47.070Z,39.45
2017-12-01T17:56:14.671Z,37.00
2017-12-01T17:58:42.371Z,35.58
2017-12-01T18:01:10.811Z,38.38
2017-12-01T18:03:38.420Z,32.70
2017-12-01T18:06:06.751Z,33.85
2017-12-01T18:08:34.332Z,37.70
2017-12-01T18:11:01.902Z,35.75
2017-12-01T18:13:30.247Z,40.55
2017-12-01T18:15:57.861Z,34.28
2017-12-01T18:18:25.444Z,40.12
2017-12-01T18:20:53.042Z,33.92
2017-12-01T18:23:20.604Z,33.00
2017-12-01T18:25:48.174Z,36.50
2017-12-01T18:28:16.544Z,37.35
2017-12-01T18:30:44.892Z,35.22
2017-12-01T18:33:12.491Z,32.60
2017-12-01T18:35:40.948Z,35.25
2017-12-01T18:38:08.612Z,38.08
2017-12-01T18:40:36.248Z,37.67
2017-12-01T18:43:03.844Z,31.60
2017-12-01T18:45:31.449Z,33.40
2017-12-01T18:47:59.045Z,28.38
2017-12-01T18:50:26.615Z,32.40
2017-12-01T18:52:54.227Z,31.00
2017-12-01T18:55:21.868Z,30.17
2017-12-01T18:57:49.479Z,34.63
2017-12-01T19:00:17.052Z,33.47
2017-12-01T19:02:44.755Z,40.58
2017-12-01T19:05:12.622Z,34.95
2017-12-01T19:07:40.486Z,38.28
2017-12-01T19:10:08.557Z,40.25
2017-12-01T19:12:36.738Z,37.83
2017-12-01T19:15:06.336Z,34.30
2017-12-01T19:17:34.511Z,37.55
2017-12-01T19:20:02.590Z,41.95
2017-12-01T19:22:30.657Z,35.88
2017-12-01T19:24:59.437Z,36.67
2017-12-01T19:27:27.509Z,35.63
2017-12-01T19:29:55.579Z,38.67
2017-12-01T19:32:23.549Z,35.67
2017-12-01T19:34:51.619Z,35.65
2017-12-01T19:37:19.585Z,35.95
2017-12-01T19:39:47.655Z,36.22
2017-12-01T19:42:15.628Z,34.92
2017-12-01T19:44:43.691Z,36.95
2017-12-01T19:47:11.864Z,33.00
2017-12-01T19:49:39.934Z,40.67
2017-12-01T19:52:07.902Z,37.53
2017-12-01T19:54:35.874Z,36.28
2017-12-01T19:57:03.941Z,32.13
2017-12-01T19:59:32.126Z,33.67
2017-12-01T20:02:00.085Z,31.62
2017-12-01T20:04:28.165Z,38.88
2017-12-01T20:06:56.100Z,32.90
2017-12-01T20:09:24.086Z,35.05
2017-12-01T20:11:52.155Z,33.15
2017-12-01T20:14:20.193Z,35.00
2017-12-01T20:16:48.093Z,33.22
2017-12-01T20:19:16.162Z,37.10
2017-12-01T20:21:44.130Z,34.83
2017-12-01T20:24:12.207Z,33.42
2017-12-01T20:26:40.273Z,37.30
2017-12-01T20:29:08.238Z,39.20
2017-12-01T20:31:36.206Z,34.22
2017-12-01T20:34:05.820Z,34.65
2017-12-01T20:36:33.965Z,31.58
2017-12-01T20:39:01.952Z,38.45
2017-12-01T20:41:30.032Z,31.87
2017-12-01T20:43:57.903Z,37.90
2017-12-01T20:46:25.774Z,35.22
2017-12-01T20:48:53.680Z,36.67
2017-12-01T20:51:22.105Z,32.67
2017-12-01T20:53:49.695Z,35.90
2017-12-01T20:56:17.291Z,35.60
2017-12-01T20:58:45.827Z,35.30
2017-12-01T21:01:13.449Z,36.30
2017-12-01T21:03:41.016Z,34.75
2017-12-01T21:06:08.687Z,34.97
2017-12-01T21:08:36.259Z,35.17
2017-12-01T21:11:03.904Z,38.33
2017-12-01T21:13:31.465Z,39.28
2017-12-01T21:15:59.143Z,34.60
2017-12-01T21:18:26.757Z,39.08
2017-12-01T21:20:54.339Z,38.63
2017-12-01T21:23:21.948Z,35.78
2017-12-01T21:25:49.519Z,38.88
2017-12-01T21:28:17.928Z,37.70
2017-12-01T21:30:45.492Z,39.28
2017-12-01T21:33:13.057Z,34.67
2017-12-01T21:35:40.685Z,42.30
2017-12-01T21:38:09.148Z,38.67
2017-12-01T21:40:36.751Z,45.22
2017-12-01T21:43:04.340Z,41.25
2017-12-01T21:45:31.962Z,37.15
2017-12-01T21:47:59.576Z,38.83
2017-12-01T21:50:27.157Z,38.63
2017-12-01T21:52:55.670Z,36.83
2017-12-01T21:55:23.246Z,37.45
2017-12-01T21:57:51.057Z,37.33
2017-12-01T22:00:19.388Z,36.63
2017-12-01T22:02:46.953Z,38.10
2017-12-01T22:05:14.556Z,40.15
2017-12-01T22:07:42.913Z,44.10
2017-12-01T22:10:10.514Z,38.08
2017-12-01T22:12:38.122Z,37.00
2017-12-01T22:15:05.704Z,42.33
2017-12-01T22:17:34.184Z,44.25
2017-12-01T22:20:02.625Z,39.53
2017-12-01T22:22:30.268Z,43.55
2017-12-01T22:24:57.840Z,42.00
2017-12-01T22:27:25.415Z,41.83
2017-12-01T22:29:53.004Z,41.67
2017-12-01T22:32:21.335Z,44.53
2017-12-01T22:34:48.983Z,45.88
2017-12-01T22:37:16.552Z,41.42
2017-12-01T22:39:44.115Z,48.87
2017-12-01T22:42:11.731Z,44.08
2017-12-01T22:44:39.298Z,41.95
2017-12-01T22:47:06.898Z,43.05
2017-12-01T22:49:34.467Z,45.28
2017-12-01T22:52:03.580Z,44.47
2017-12-01T22:54:31.990Z,50.75
2017-12-01T22:56:59.587Z,47.47
2017-12-01T22:59:27.198Z,48.83
2017-12-01T23:01:54.827Z,39.88
2017-12-01T23:04:23.202Z,47.08
2017-12-01T23:06:50.772Z,52.72
2017-12-01T23:09:19.184Z,43.63
2017-12-01T23:11:46.813Z,46.17
2017-12-01T23:14:15.155Z,55.83
2017-12-01T23:16:42.791Z,53.80
2017-12-01T23:19:10.352Z,51.50
2017-12-01T23:21:37.952Z,57.10
2017-12-01T23:24:05.527Z,47.67
2017-12-01T23:26:33.855Z,44.38
2017-12-01T23:29:01.489Z,49.00
2017-12-01T23:31:29.127Z,49.60
2017-12-01T23:33:57.544Z,56.03
2017-12-01T23:36:25.188Z,51.37
2017-12-01T23:38:52.872Z,53.97
2017-12-01T23:41:20.459Z,55.25
2017-12-01T23:43:48.060Z,53.97
2017-12-01T23:46:15.665Z,55.65
2017-12-01T23:48:43.250Z,58.08
2017-12-01T23:51:11.772Z,52.10
2017-12-01T23:53:39.340Z,50.28
2017-12-01T23:56:06.908Z,54.38
2017-12-01T23:58:34.647Z,53.95
